sensor_id;sensor_type;location;lat;lon;timestamp;P1;durP1;ratioP1;P2;durP2;ratioP2
32613;SDS011;19031;51.400;6.770;2023-04-01T00:01:37;5.78;;;0.73;;
32613;SDS011;19031;51.400;6.770;2023-04-01T00:04:03;6.45;;;1.13;;
32613;SDS011;19031;51.400;6.770;2023-04-01T00:06:28;6.43;;;0.85;;
32613;SDS011;19031;51.400;6.770;2023-04-01T00:08:54;1.48;;;0.35;;
32613;SDS011;19031;51.400;6.770;2023-04-01T00:11:20;1.08;;;0.50;;
32613;SDS011;19031;51.400;6.770;2023-04-01T00:13:46;3.55;;;0.28;;
32613;SDS011;19031;51.400;6.770;2023-04-01T00:16:11;1.33;;;0.25;;
32613;SDS011;19031;51.400;6.770;2023-04-01T00:18:38;2.38;;;0.25;;
32613;SDS011;19031;51.400;6.770;2023-04-01T00:21:04;1.15;;;0.35;;
32613;SDS011;19031;51.400;6.770;2023-04-01T00:23:30;1.65;;;0.35;;
32613;SDS011;19031;51.400;6.770;2023-04-01T00:25:55;0.55;;;0.38;;
32613;SDS011;19031;51.400;6.770;2023-04-01T00:28:23;0.47;;;0.28;;
32613;SDS011;19031;51.400;6.770;2023-04-01T00:30:49;3.20;;;0.50;;
32613;SDS011;19031;51.400;6.770;2023-04-01T00:33:15;4.00;;;0.50;;
32613;SDS011;19031;51.400;6.770;2023-04-01T00:35:41;0.22;;;0.10;;
32613;SDS011;19031;51.400;6.770;2023-04-01T00:38:07;0.47;;;0.45;;
32613;SDS011;19031;51.400;6.770;2023-04-01T00:43:00;1.17;;;0.20;;
32613;SDS011;19031;51.400;6.770;2023-04-01T00:45:37;2.22;;;0.22;;
32613;SDS011;19031;51.400;6.770;2023-04-01T00:48:12;0.35;;;0.10;;
32613;SDS011;19031;51.400;6.770;2023-04-01T00:50:40;0.45;;;0.20;;
32613;SDS011;19031;51.400;6.770;2023-04-01T00:53:09;1.67;;;0.35;;
32613;SDS011;19031;51.400;6.770;2023-04-01T00:55:36;0.73;;;0.30;;
32613;SDS011;19031;51.400;6.770;2023-04-01T00:58:07;1.65;;;0.32;;
32613;SDS011;19031;51.400;6.770;2023-04-01T01:00:38;0.77;;;0.30;;
32613;SDS011;19031;51.400;6.770;2023-04-01T01:03:04;0.70;;;0.30;;
32613;SDS011;19031;51.400;6.770;2023-04-01T01:05:37;0.90;;;0.45;;
32613;SDS011;19031;51.400;6.770;2023-04-01T01:08:21;1.73;;;0.30;;
32613;SDS011;19031;51.400;6.770;2023-04-01T01:11:01;0.47;;;0.30;;
32613;SDS011;19031;51.400;6.770;2023-04-01T01:13:53;0.50;;;0.20;;
32613;SDS011;19031;51.400;6.770;2023-04-01T01:29:06;1.15;;;0.40;;
32613;SDS011;19031;51.400;6.770;2023-04-01T01:37:05;2.58;;;0.50;;
32613;SDS011;19031;51.400;6.770;2023-04-01T01:39:37;0.55;;;0.10;;
32613;SDS011;19031;51.400;6.770;2023-04-01T01:42:06;0.13;;;0.13;;
32613;SDS011;19031;51.400;6.770;2023-04-01T01:44:36;0.40;;;0.32;;
32613;SDS011;19031;51.400;6.770;2023-04-01T01:47:03;1.40;;;0.40;;
32613;SDS011;19031;51.400;6.770;2023-04-01T01:49:29;2.05;;;0.20;;
32613;SDS011;19031;51.400;6.770;2023-04-01T01:51:58;0.45;;;0.20;;
32613;SDS011;19031;51.400;6.770;2023-04-01T01:54:23;0.52;;;0.28;;
32613;SDS011;19031;51.400;6.770;2023-04-01T01:56:49;3.25;;;0.20;;
32613;SDS011;19031;51.400;6.770;2023-04-01T01:59:20;1.42;;;0.30;;
32613;SDS011;19031;51.400;6.770;2023-04-01T02:01:50;0.68;;;0.20;;
32613;SDS011;19031;51.400;6.770;2023-04-01T02:04:18;0.10;;;0.10;;
32613;SDS011;19031;51.400;6.770;2023-04-01T02:07:19;0.63;;;0.10;;
32613;SDS011;19031;51.400;6.770;2023-04-01T02:09:43;1.42;;;0.10;;
32613;SDS011;19031;51.400;6.770;2023-04-01T02:12:09;0.50;;;0.20;;
32613;SDS011;19031;51.400;6.770;2023-04-01T02:14:43;3.13;;;0.40;;
32613;SDS011;19031;51.400;6.770;2023-04-01T02:17:18;0.30;;;0.10;;
32613;SDS011;19031;51.400;6.770;2023-04-01T02:20:06;5.50;;;0.73;;
32613;SDS011;19031;51.400;6.770;2023-04-01T02:22:54;1.98;;;0.25;;
32613;SDS011;19031;51.400;6.770;2023-04-01T02:25:29;0.10;;;0.10;;
32613;SDS011;19031;51.400;6.770;2023-04-01T02:27:58;0.60;;;0.30;;
32613;SDS011;19031;51.400;6.770;2023-04-01T02:30:27;3.33;;;0.20;;
32613;SDS011;19031;51.400;6.770;2023-04-01T02:32:55;2.30;;;0.13;;
32613;SDS011;19031;51.400;6.770;2023-04-01T02:35:23;0.70;;;0.30;;
32613;SDS011;19031;51.400;6.770;2023-04-01T02:37:49;2.95;;;0.30;;
32613;SDS011;19031;51.400;6.770;2023-04-01T02:40:17;0.98;;;0.45;;
32613;SDS011;19031;51.400;6.770;2023-04-01T02:42:43;2.50;;;0.70;;
32613;SDS011;19031;51.400;6.770;2023-04-01T02:45:09;5.20;;;1.38;;
32613;SDS011;19031;51.400;6.770;2023-04-01T02:47:35;3.63;;;1.60;;
32613;SDS011;19031;51.400;6.770;2023-04-01T02:50:01;6.88;;;1.67;;
32613;SDS011;19031;51.400;6.770;2023-04-01T02:52:27;5.50;;;1.65;;
32613;SDS011;19031;51.400;6.770;2023-04-01T02:54:53;9.95;;;1.98;;
32613;SDS011;19031;51.400;6.770;2023-04-01T02:57:19;5.78;;;2.00;;
32613;SDS011;19031;51.400;6.770;2023-04-01T02:59:45;2.65;;;1.45;;
32613;SDS011;19031;51.400;6.770;2023-04-01T03:02:11;5.53;;;1.80;;
32613;SDS011;19031;51.400;6.770;2023-04-01T03:04:37;3.42;;;1.67;;
32613;SDS011;19031;51.400;6.770;2023-04-01T03:07:02;7.90;;;3.40;;
32613;SDS011;19031;51.400;6.770;2023-04-01T03:09:28;4.70;;;2.00;;
32613;SDS011;19031;51.400;6.770;2023-04-01T03:11:54;5.25;;;1.98;;
32613;SDS011;19031;51.400;6.770;2023-04-01T03:14:20;1.88;;;1.13;;
32613;SDS011;19031;51.400;6.770;2023-04-01T03:16:45;2.38;;;1.10;;
32613;SDS011;19031;51.400;6.770;2023-04-01T03:19:11;3.17;;;1.58;;
32613;SDS011;19031;51.400;6.770;2023-04-01T03:21:37;4.45;;;1.50;;
32613;SDS011;19031;51.400;6.770;2023-04-01T03:24:02;2.25;;;1.08;;
32613;SDS011;19031;51.400;6.770;2023-04-01T03:26:28;1.40;;;0.80;;
32613;SDS011;19031;51.400;6.770;2023-04-01T03:28:54;1.85;;;1.10;;
32613;SDS011;19031;51.400;6.770;2023-04-01T03:31:20;3.38;;;0.73;;
32613;SDS011;19031;51.400;6.770;2023-04-01T03:33:46;2.03;;;0.90;;
32613;SDS011;19031;51.400;6.770;2023-04-01T03:36:12;0.98;;;0.85;;
32613;SDS011;19031;51.400;6.770;2023-04-01T03:38:39;1.15;;;0.73;;
32613;SDS011;19031;51.400;6.770;2023-04-01T03:41:05;1.88;;;0.85;;
32613;SDS011;19031;51.400;6.770;2023-04-01T03:43:32;1.02;;;0.70;;
32613;SDS011;19031;51.400;6.770;2023-04-01T03:45:58;1.40;;;0.80;;
32613;SDS011;19031;51.400;6.770;2023-04-01T03:48:24;2.58;;;0.70;;
32613;SDS011;19031;51.400;6.770;2023-04-01T03:50:50;1.05;;;0.85;;
32613;SDS011;19031;51.400;6.770;2023-04-01T03:53:16;2.72;;;0.70;;
32613;SDS011;19031;51.400;6.770;2023-04-01T03:55:42;0.93;;;0.63;;
32613;SDS011;19031;51.400;6.770;2023-04-01T03:58:08;1.48;;;0.60;;
32613;SDS011;19031;51.400;6.770;2023-04-01T04:00:34;1.23;;;0.70;;
32613;SDS011;19031;51.400;6.770;2023-04-01T04:03:00;0.95;;;0.63;;
32613;SDS011;19031;51.400;6.770;2023-04-01T04:05:26;1.77;;;0.85;;
32613;SDS011;19031;51.400;6.770;2023-04-01T04:07:51;1.02;;;0.47;;
32613;SDS011;19031;51.400;6.770;2023-04-01T04:10:18;11.07;;;0.93;;
32613;SDS011;19031;51.400;6.770;2023-04-01T04:12:44;0.73;;;0.40;;
32613;SDS011;19031;51.400;6.770;2023-04-01T04:15:10;0.82;;;0.28;;
32613;SDS011;19031;51.400;6.770;2023-04-01T04:17:36;1.05;;;0.55;;
32613;SDS011;19031;51.400;6.770;2023-04-01T04:20:01;3.15;;;0.63;;
32613;SDS011;19031;51.400;6.770;2023-04-01T04:22:27;0.40;;;0.40;;
32613;SDS011;19031;51.400;6.770;2023-04-01T04:24:53;0.45;;;0.40;;
32613;SDS011;19031;51.400;6.770;2023-04-01T04:27:19;1.95;;;0.30;;
32613;SDS011;19031;51.400;6.770;2023-04-01T04:29:44;1.73;;;0.82;;
32613;SDS011;19031;51.400;6.770;2023-04-01T04:32:10;1.60;;;0.60;;
32613;SDS011;19031;51.400;6.770;2023-04-01T04:34:36;1.02;;;0.50;;
32613;SDS011;19031;51.400;6.770;2023-04-01T04:37:01;2.55;;;0.93;;
32613;SDS011;19031;51.400;6.770;2023-04-01T04:39:27;1.75;;;0.75;;
32613;SDS011;19031;51.400;6.770;2023-04-01T04:41:53;1.77;;;0.88;;
32613;SDS011;19031;51.400;6.770;2023-04-01T04:44:18;1.85;;;1.08;;
32613;SDS011;19031;51.400;6.770;2023-04-01T04:46:44;2.47;;;1.10;;
32613;SDS011;19031;51.400;6.770;2023-04-01T04:49:09;8.55;;;1.20;;
32613;SDS011;19031;51.400;6.770;2023-04-01T04:51:35;1.27;;;0.80;;
32613;SDS011;19031;51.400;6.770;2023-04-01T04:54:01;2.80;;;0.75;;
32613;SDS011;19031;51.400;6.770;2023-04-01T04:56:28;1.38;;;0.77;;
32613;SDS011;19031;51.400;6.770;2023-04-01T04:58:53;6.38;;;1.20;;
32613;SDS011;19031;51.400;6.770;2023-04-01T05:01:20;1.67;;;0.95;;
32613;SDS011;19031;51.400;6.770;2023-04-01T05:03:45;1.00;;;0.70;;
32613;SDS011;19031;51.400;6.770;2023-04-01T05:06:12;1.98;;;0.75;;
32613;SDS011;19031;51.400;6.770;2023-04-01T05:08:39;3.05;;;1.00;;
32613;SDS011;19031;51.400;6.770;2023-04-01T05:11:06;2.60;;;1.30;;
32613;SDS011;19031;51.400;6.770;2023-04-01T05:13:35;3.13;;;1.90;;
32613;SDS011;19031;51.400;6.770;2023-04-01T05:16:01;1.55;;;1.10;;
32613;SDS011;19031;51.400;6.770;2023-04-01T05:18:27;1.05;;;0.70;;
32613;SDS011;19031;51.400;6.770;2023-04-01T05:20:53;3.95;;;1.58;;
32613;SDS011;19031;51.400;6.770;2023-04-01T05:23:20;3.60;;;1.65;;
32613;SDS011;19031;51.400;6.770;2023-04-01T05:25:47;3.88;;;1.45;;
32613;SDS011;19031;51.400;6.770;2023-04-01T05:28:14;6.38;;;1.35;;
32613;SDS011;19031;51.400;6.770;2023-04-01T05:30:41;5.60;;;1.75;;
32613;SDS011;19031;51.400;6.770;2023-04-01T05:33:07;2.53;;;1.73;;
32613;SDS011;19031;51.400;6.770;2023-04-01T05:35:34;2.95;;;1.67;;
32613;SDS011;19031;51.400;6.770;2023-04-01T05:38:00;6.72;;;1.58;;
32613;SDS011;19031;51.400;6.770;2023-04-01T05:40:26;5.20;;;2.17;;
32613;SDS011;19031;51.400;6.770;2023-04-01T05:42:52;4.55;;;1.60;;
32613;SDS011;19031;51.400;6.770;2023-04-01T05:45:18;2.30;;;1.23;;
32613;SDS011;19031;51.400;6.770;2023-04-01T05:47:44;5.65;;;2.72;;
32613;SDS011;19031;51.400;6.770;2023-04-01T05:50:09;8.65;;;2.30;;
32613;SDS011;19031;51.400;6.770;2023-04-01T05:52:35;4.90;;;2.53;;
32613;SDS011;19031;51.400;6.770;2023-04-01T05:55:02;4.82;;;2.50;;
32613;SDS011;19031;51.400;6.770;2023-04-01T05:57:28;9.48;;;2.78;;
32613;SDS011;19031;51.400;6.770;2023-04-01T05:59:53;6.05;;;3.03;;
32613;SDS011;19031;51.400;6.770;2023-04-01T06:02:19;5.95;;;2.95;;
32613;SDS011;19031;51.400;6.770;2023-04-01T06:04:44;5.75;;;3.63;;
32613;SDS011;19031;51.400;6.770;2023-04-01T06:07:11;7.32;;;3.67;;
32613;SDS011;19031;51.400;6.770;2023-04-01T06:09:38;5.25;;;3.33;;
32613;SDS011;19031;51.400;6.770;2023-04-01T06:20:12;9.57;;;4.25;;
32613;SDS011;19031;51.400;6.770;2023-04-01T06:25:53;4.70;;;2.53;;
32613;SDS011;19031;51.400;6.770;2023-04-01T06:31:38;8.55;;;4.78;;
32613;SDS011;19031;51.400;6.770;2023-04-01T06:34:25;6.70;;;4.05;;
32613;SDS011;19031;51.400;6.770;2023-04-01T06:37:39;5.45;;;3.10;;
32613;SDS011;19031;51.400;6.770;2023-04-01T06:43:01;4.72;;;3.30;;
32613;SDS011;19031;51.400;6.770;2023-04-01T06:45:42;9.73;;;5.25;;
32613;SDS011;19031;51.400;6.770;2023-04-01T06:56:30;6.40;;;3.17;;
32613;SDS011;19031;51.400;6.770;2023-04-01T06:58:58;5.05;;;2.30;;
32613;SDS011;19031;51.400;6.770;2023-04-01T07:01:47;4.60;;;1.95;;
32613;SDS011;19031;51.400;6.770;2023-04-01T07:06:48;3.38;;;1.95;;
32613;SDS011;19031;51.400;6.770;2023-04-01T07:09:19;2.28;;;1.63;;
32613;SDS011;19031;51.400;6.770;2023-04-01T07:11:49;3.20;;;2.08;;
32613;SDS011;19031;51.400;6.770;2023-04-01T07:14:29;2.00;;;1.38;;
32613;SDS011;19031;51.400;6.770;2023-04-01T07:19:39;5.80;;;1.70;;
32613;SDS011;19031;51.400;6.770;2023-04-01T07:24:52;3.70;;;1.60;;
32613;SDS011;19031;51.400;6.770;2023-04-01T07:27:19;2.70;;;1.45;;
32613;SDS011;19031;51.400;6.770;2023-04-01T07:29:45;2.25;;;1.50;;
32613;SDS011;19031;51.400;6.770;2023-04-01T07:32:22;2.70;;;1.52;;
32613;SDS011;19031;51.400;6.770;2023-04-01T07:43:09;3.20;;;1.70;;
32613;SDS011;19031;51.400;6.770;2023-04-01T07:48:35;1.23;;;1.13;;
32613;SDS011;19031;51.400;6.770;2023-04-01T07:51:23;2.35;;;1.70;;
32613;SDS011;19031;51.400;6.770;2023-04-01T07:54:16;3.13;;;2.33;;
32613;SDS011;19031;51.400;6.770;2023-04-01T07:56:51;4.75;;;2.50;;
32613;SDS011;19031;51.400;6.770;2023-04-01T08:07:59;4.90;;;2.88;;
32613;SDS011;19031;51.400;6.770;2023-04-01T08:13:46;4.53;;;3.00;;
32613;SDS011;19031;51.400;6.770;2023-04-01T08:21:51;4.03;;;2.50;;
32613;SDS011;19031;51.400;6.770;2023-04-01T08:24:42;6.68;;;3.42;;
32613;SDS011;19031;51.400;6.770;2023-04-01T08:27:20;7.35;;;3.58;;
32613;SDS011;19031;51.400;6.770;2023-04-01T08:32:24;5.95;;;3.35;;
32613;SDS011;19031;51.400;6.770;2023-04-01T08:35:06;6.00;;;3.00;;
32613;SDS011;19031;51.400;6.770;2023-04-01T08:37:35;5.10;;;2.80;;
32613;SDS011;19031;51.400;6.770;2023-04-01T08:40:17;6.60;;;3.28;;
32613;SDS011;19031;51.400;6.770;2023-04-01T08:59:53;5.25;;;3.05;;
32613;SDS011;19031;51.400;6.770;2023-04-01T09:20:17;6.90;;;3.35;;
32613;SDS011;19031;51.400;6.770;2023-04-01T09:25:52;6.85;;;3.60;;
32613;SDS011;19031;51.400;6.770;2023-04-01T09:28:20;6.90;;;3.95;;
32613;SDS011;19031;51.400;6.770;2023-04-01T09:36:57;6.45;;;3.47;;
32613;SDS011;19031;51.400;6.770;2023-04-01T09:39:53;9.82;;;4.10;;
32613;SDS011;19031;51.400;6.770;2023-04-01T09:50:52;7.53;;;3.90;;
32613;SDS011;19031;51.400;6.770;2023-04-01T09:56:05;9.23;;;4.90;;
32613;SDS011;19031;51.400;6.770;2023-04-01T10:04:10;10.00;;;5.10;;
32613;SDS011;19031;51.400;6.770;2023-04-01T10:21:02;10.10;;;4.50;;
32613;SDS011;19031;51.400;6.770;2023-04-01T10:34:56;10.90;;;5.47;;
32613;SDS011;19031;51.400;6.770;2023-04-01T10:37:36;10.25;;;4.93;;
32613;SDS011;19031;51.400;6.770;2023-04-01T10:40:35;8.52;;;5.00;;
32613;SDS011;19031;51.400;6.770;2023-04-01T10:46:32;7.90;;;4.25;;
32613;SDS011;19031;51.400;6.770;2023-04-01T10:52:35;10.77;;;5.15;;
32613;SDS011;19031;51.400;6.770;2023-04-01T11:00:53;11.13;;;5.28;;
32613;SDS011;19031;51.400;6.770;2023-04-01T11:11:43;11.38;;;5.63;;
32613;SDS011;19031;51.400;6.770;2023-04-01T11:15:05;14.10;;;6.03;;
32613;SDS011;19031;51.400;6.770;2023-04-01T11:17:36;9.23;;;4.55;;
32613;SDS011;19031;51.400;6.770;2023-04-01T11:23:32;11.27;;;5.85;;
32613;SDS011;19031;51.400;6.770;2023-04-01T11:26:19;10.70;;;5.65;;
32613;SDS011;19031;51.400;6.770;2023-04-01T11:35:08;10.05;;;5.35;;
32613;SDS011;19031;51.400;6.770;2023-04-01T11:49:51;9.77;;;5.43;;
32613;SDS011;19031;51.400;6.770;2023-04-01T11:58:19;9.60;;;4.70;;
32613;SDS011;19031;51.400;6.770;2023-04-01T12:01:02;10.90;;;5.53;;
32613;SDS011;19031;51.400;6.770;2023-04-01T12:16:59;9.55;;;4.63;;
32613;SDS011;19031;51.400;6.770;2023-04-01T12:19:51;9.43;;;4.75;;
32613;SDS011;19031;51.400;6.770;2023-04-01T12:22:36;17.38;;;4.85;;
32613;SDS011;19031;51.400;6.770;2023-04-01T12:28:50;9.60;;;4.93;;
32613;SDS011;19031;51.400;6.770;2023-04-01T12:36:55;7.97;;;4.05;;
32613;SDS011;19031;51.400;6.770;2023-04-01T12:39:57;6.30;;;3.97;;
32613;SDS011;19031;51.400;6.770;2023-04-01T12:45:04;7.80;;;3.33;;
32613;SDS011;19031;51.400;6.770;2023-04-01T13:01:44;10.88;;;5.25;;
32613;SDS011;19031;51.400;6.770;2023-04-01T13:07:42;6.10;;;3.03;;
32613;SDS011;19031;51.400;6.770;2023-04-01T13:29:05;7.05;;;4.22;;
32613;SDS011;19031;51.400;6.770;2023-04-01T13:31:44;6.72;;;3.30;;
32613;SDS011;19031;51.400;6.770;2023-04-01T13:37:15;6.35;;;3.75;;
32613;SDS011;19031;51.400;6.770;2023-04-01T13:42:47;8.25;;;4.20;;
32613;SDS011;19031;51.400;6.770;2023-04-01T13:45:26;8.75;;;4.20;;
32613;SDS011;19031;51.400;6.770;2023-04-01T13:48:28;7.97;;;3.75;;
32613;SDS011;19031;51.400;6.770;2023-04-01T13:51:23;6.95;;;4.20;;
32613;SDS011;19031;51.400;6.770;2023-04-01T13:59:40;10.48;;;3.28;;
32613;SDS011;19031;51.400;6.770;2023-04-01T14:02:24;6.55;;;3.85;;
32613;SDS011;19031;51.400;6.770;2023-04-01T14:23:35;7.25;;;3.35;;
32613;SDS011;19031;51.400;6.770;2023-04-01T14:34:34;4.95;;;3.05;;
32613;SDS011;19031;51.400;6.770;2023-04-01T14:40:26;6.65;;;3.60;;
32613;SDS011;19031;51.400;6.770;2023-04-01T14:48:53;4.45;;;2.38;;
32613;SDS011;19031;51.400;6.770;2023-04-01T14:51:39;3.75;;;2.13;;
32613;SDS011;19031;51.400;6.770;2023-04-01T14:54:13;5.25;;;2.63;;
32613;SDS011;19031;51.400;6.770;2023-04-01T14:56:48;4.80;;;2.22;;
32613;SDS011;19031;51.400;6.770;2023-04-01T15:01:53;4.72;;;2.25;;
32613;SDS011;19031;51.400;6.770;2023-04-01T15:08:05;5.63;;;2.45;;
32613;SDS011;19031;51.400;6.770;2023-04-01T15:16:11;4.25;;;2.40;;
32613;SDS011;19031;51.400;6.770;2023-04-01T15:18:51;4.60;;;2.42;;
32613;SDS011;19031;51.400;6.770;2023-04-01T15:49:01;4.78;;;1.80;;
32613;SDS011;19031;51.400;6.770;2023-04-01T15:54:23;1.85;;;1.33;;
32613;SDS011;19031;51.400;6.770;2023-04-01T16:05:22;2.65;;;1.52;;
32613;SDS011;19031;51.400;6.770;2023-04-01T16:18:39;6.40;;;1.80;;
32613;SDS011;19031;51.400;6.770;2023-04-01T16:24:17;2.50;;;1.80;;
32613;SDS011;19031;51.400;6.770;2023-04-01T16:34:56;4.13;;;2.75;;
32613;SDS011;19031;51.400;6.770;2023-04-01T16:37:50;2.70;;;1.67;;
32613;SDS011;19031;51.400;6.770;2023-04-01T16:43:28;8.48;;;3.28;;
32613;SDS011;19031;51.400;6.770;2023-04-01T16:59:38;4.57;;;2.60;;
32613;SDS011;19031;51.400;6.770;2023-04-01T17:02:12;4.35;;;2.08;;
32613;SDS011;19031;51.400;6.770;2023-04-01T17:07:29;4.68;;;2.90;;
32613;SDS011;19031;51.400;6.770;2023-04-01T17:13:16;4.70;;;3.43;;
32613;SDS011;19031;51.400;6.770;2023-04-01T17:21:18;7.13;;;2.90;;
32613;SDS011;19031;51.400;6.770;2023-04-01T17:29:46;5.13;;;3.30;;
32613;SDS011;19031;51.400;6.770;2023-04-01T17:35:26;6.50;;;3.40;;
32613;SDS011;19031;51.400;6.770;2023-04-01T17:38:11;4.22;;;2.72;;
32613;SDS011;19031;51.400;6.770;2023-04-01T17:41:01;6.38;;;3.67;;
32613;SDS011;19031;51.400;6.770;2023-04-01T17:46:27;5.78;;;3.58;;
32613;SDS011;19031;51.400;6.770;2023-04-01T17:51:50;6.70;;;3.40;;
32613;SDS011;19031;51.400;6.770;2023-04-01T18:00:15;5.65;;;3.50;;
32613;SDS011;19031;51.400;6.770;2023-04-01T18:05:58;5.22;;;3.05;;
32613;SDS011;19031;51.400;6.770;2023-04-01T18:08:42;5.30;;;3.42;;
32613;SDS011;19031;51.400;6.770;2023-04-01T18:16:55;7.13;;;3.50;;
32613;SDS011;19031;51.400;6.770;2023-04-01T18:19:51;6.55;;;4.20;;
32613;SDS011;19031;51.400;6.770;2023-04-01T18:22:28;7.78;;;4.50;;
32613;SDS011;19031;51.400;6.770;2023-04-01T18:25:01;4.63;;;3.30;;
32613;SDS011;19031;51.400;6.770;2023-04-01T18:30:28;6.80;;;3.70;;
32613;SDS011;19031;51.400;6.770;2023-04-01T18:33:07;10.52;;;4.03;;
32613;SDS011;19031;51.400;6.770;2023-04-01T18:35:50;7.97;;;4.22;;
32613;SDS011;19031;51.400;6.770;2023-04-01T18:38:37;6.07;;;3.45;;
32613;SDS011;19031;51.400;6.770;2023-04-01T18:41:13;11.70;;;4.65;;
32613;SDS011;19031;51.400;6.770;2023-04-01T18:46:36;6.53;;;4.20;;
32613;SDS011;19031;51.400;6.770;2023-04-01T18:51:45;8.52;;;4.03;;
32613;SDS011;19031;51.400;6.770;2023-04-01T18:54:32;5.95;;;3.65;;
32613;SDS011;19031;51.400;6.770;2023-04-01T18:57:10;7.00;;;3.83;;
32613;SDS011;19031;51.400;6.770;2023-04-01T18:59:43;7.40;;;4.35;;
32613;SDS011;19031;51.400;6.770;2023-04-01T19:05:15;6.65;;;3.97;;
32613;SDS011;19031;51.400;6.770;2023-04-01T19:07:53;8.35;;;5.28;;
32613;SDS011;19031;51.400;6.770;2023-04-01T19:10:26;8.48;;;5.25;;
32613;SDS011;19031;51.400;6.770;2023-04-01T19:13:27;9.07;;;5.47;;
32613;SDS011;19031;51.400;6.770;2023-04-01T19:18:50;11.25;;;6.60;;
32613;SDS011;19031;51.400;6.770;2023-04-01T19:27:21;9.15;;;4.80;;
32613;SDS011;19031;51.400;6.770;2023-04-01T19:29:56;9.77;;;4.93;;
32613;SDS011;19031;51.400;6.770;2023-04-01T19:35:28;7.50;;;4.10;;
32613;SDS011;19031;51.400;6.770;2023-04-01T19:38:01;10.20;;;4.22;;
32613;SDS011;19031;51.400;6.770;2023-04-01T19:48:44;3.53;;;2.70;;
32613;SDS011;19031;51.400;6.770;2023-04-01T19:51:37;2.92;;;1.85;;
32613;SDS011;19031;51.400;6.770;2023-04-01T20:00:02;3.03;;;2.00;;
32613;SDS011;19031;51.400;6.770;2023-04-01T20:05:23;4.47;;;2.47;;
32613;SDS011;19031;51.400;6.770;2023-04-01T20:08:11;4.40;;;2.35;;
32613;SDS011;19031;51.400;6.770;2023-04-01T20:10:56;2.97;;;2.25;;
32613;SDS011;19031;51.400;6.770;2023-04-01T20:13:28;5.03;;;2.72;;
32613;SDS011;19031;51.400;6.770;2023-04-01T20:16:02;4.82;;;2.28;;
32613;SDS011;19031;51.400;6.770;2023-04-01T20:18:36;4.68;;;2.35;;
32613;SDS011;19031;51.400;6.770;2023-04-01T20:23:43;4.07;;;2.50;;
32613;SDS011;19031;51.400;6.770;2023-04-01T20:26:20;3.78;;;2.60;;
32613;SDS011;19031;51.400;6.770;2023-04-01T20:31:31;4.50;;;3.03;;
32613;SDS011;19031;51.400;6.770;2023-04-01T20:34:25;4.55;;;2.80;;
32613;SDS011;19031;51.400;6.770;2023-04-01T20:37:00;4.18;;;3.05;;
32613;SDS011;19031;51.400;6.770;2023-04-01T20:50:27;4.28;;;2.97;;
32613;SDS011;19031;51.400;6.770;2023-04-01T21:01:24;4.45;;;2.47;;
32613;SDS011;19031;51.400;6.770;2023-04-01T21:04:00;5.55;;;3.00;;
32613;SDS011;19031;51.400;6.770;2023-04-01T21:09:31;3.83;;;2.45;;
32613;SDS011;19031;51.400;6.770;2023-04-01T21:17:50;2.90;;;2.50;;
32613;SDS011;19031;51.400;6.770;2023-04-01T21:31:53;6.05;;;1.50;;
32613;SDS011;19031;51.400;6.770;2023-04-01T21:43:09;3.05;;;2.00;;
32613;SDS011;19031;51.400;6.770;2023-04-01T21:46:11;3.07;;;1.77;;
32613;SDS011;19031;51.400;6.770;2023-04-01T21:57:15;2.13;;;1.58;;
32613;SDS011;19031;51.400;6.770;2023-04-01T22:16:32;3.00;;;1.70;;
32613;SDS011;19031;51.400;6.770;2023-04-01T22:21:58;2.55;;;1.23;;
32613;SDS011;19031;51.400;6.770;2023-04-01T22:32:47;3.70;;;2.35;;
32613;SDS011;19031;51.400;6.770;2023-04-01T22:35:30;3.25;;;2.28;;
32613;SDS011;19031;51.400;6.770;2023-04-01T22:40:50;3.33;;;2.40;;
32613;SDS011;19031;51.400;6.770;2023-04-01T22:43:38;3.47;;;2.58;;
32613;SDS011;19031;51.400;6.770;2023-04-01T22:54:15;2.83;;;1.77;;
32613;SDS011;19031;51.400;6.770;2023-04-01T22:57:08;2.88;;;1.63;;
32613;SDS011;19031;51.400;6.770;2023-04-01T23:02:34;4.07;;;2.45;;
32613;SDS011;19031;51.400;6.770;2023-04-01T23:05:03;2.80;;;2.10;;
32613;SDS011;19031;51.400;6.770;2023-04-01T23:10:26;2.97;;;1.85;;
32613;SDS011;19031;51.400;6.770;2023-04-01T23:12:59;4.40;;;2.53;;
32613;SDS011;19031;51.400;6.770;2023-04-01T23:15:27;3.75;;;2.15;;
32613;SDS011;19031;51.400;6.770;2023-04-01T23:18:05;1.98;;;1.73;;
32613;SDS011;19031;51.400;6.770;2023-04-01T23:20:52;3.30;;;1.58;;
32613;SDS011;19031;51.400;6.770;2023-04-01T23:26:15;3.58;;;2.00;;
32613;SDS011;19031;51.400;6.770;2023-04-01T23:28:55;2.45;;;1.52;;
32613;SDS011;19031;51.400;6.770;2023-04-01T23:31:41;3.47;;;1.75;;
32613;SDS011;19031;51.400;6.770;2023-04-01T23:36:44;2.80;;;1.73;;
32613;SDS011;19031;51.400;6.770;2023-04-01T23:39:22;5.28;;;2.30;;
32613;SDS011;19031;51.400;6.770;2023-04-01T23:41:56;2.70;;;1.90;;
32613;SDS011;19031;51.400;6.770;2023-04-01T23:44:37;3.00;;;1.88;;
32613;SDS011;19031;51.400;6.770;2023-04-01T23:47:04;2.60;;;1.80;;
32613;SDS011;19031;51.400;6.770;2023-04-01T23:49:35;2.63;;;1.98;;
32613;SDS011;19031;51.400;6.770;2023-04-01T23:52:19;4.65;;;2.10;;
32613;SDS011;19031;51.400;6.770;2023-04-01T23:54:50;4.22;;;2.28;;
32613;SDS011;19031;51.400;6.770;2023-04-01T23:57:21;4.40;;;1.55;;
32613;SDS011;19031;51.400;6.770;2023-04-01T23:59:58;2.75;;;2.08;;
